sensor_id;sensor_type;location;lat;lon;timestamp;temperature;humidity
17994;DHT22;9122;48.406;9.984;2023-06-04T00:00:34;19.00;56.90
17994;DHT22;9122;48.406;9.984;2023-06-04T00:03:18;19.00;56.80
17994;DHT22;9122;48.406;9.984;2023-06-04T00:06:02;18.90;56.80
17994;DHT22;9122;48.406;9.984;2023-06-04T00:08:47;18.90;56.80
17994;DHT22;9122;48.406;9.984;2023-06-04T00:11:31;18.90;56.60
17994;DHT22;9122;48.406;9.984;2023-06-04T00:14:17;18.80;56.30
17994;DHT22;9122;48.406;9.984;2023-06-04T00:17:02;18.80;56.30
17994;DHT22;9122;48.406;9.984;2023-06-04T00:19:47;18.80;56.30
17994;DHT22;9122;48.406;9.984;2023-06-04T00:22:31;18.70;56.10
17994;DHT22;9122;48.406;9.984;2023-06-04T00:25:15;18.70;55.90
17994;DHT22;9122;48.406;9.984;2023-06-04T00:28:00;18.70;55.70
17994;DHT22;9122;48.406;9.984;2023-06-04T00:30:45;18.60;55.60
17994;DHT22;9122;48.406;9.984;2023-06-04T00:33:29;18.60;55.50
17994;DHT22;9122;48.406;9.984;2023-06-04T00:36:14;18.60;55.40
17994;DHT22;9122;48.406;9.984;2023-06-04T00:38:58;18.50;55.10
17994;DHT22;9122;48.406;9.984;2023-06-04T00:41:43;18.50;54.50
17994;DHT22;9122;48.406;9.984;2023-06-04T00:44:27;18.40;54.30
17994;DHT22;9122;48.406;9.984;2023-06-04T00:47:13;18.40;54.20
17994;DHT22;9122;48.406;9.984;2023-06-04T00:49:58;18.40;54.00
17994;DHT22;9122;48.406;9.984;2023-06-04T00:52:42;18.30;53.90
17994;DHT22;9122;48.406;9.984;2023-06-04T00:55:28;18.30;53.80
17994;DHT22;9122;48.406;9.984;2023-06-04T00:58:12;18.30;53.80
17994;DHT22;9122;48.406;9.984;2023-06-04T01:00:59;18.30;53.80
17994;DHT22;9122;48.406;9.984;2023-06-04T01:03:50;18.20;53.80
17994;DHT22;9122;48.406;9.984;2023-06-04T01:06:41;18.20;53.70
17994;DHT22;9122;48.406;9.984;2023-06-04T01:09:27;18.20;53.80
17994;DHT22;9122;48.406;9.984;2023-06-04T01:12:12;18.10;53.70
17994;DHT22;9122;48.406;9.984;2023-06-04T01:14:56;18.10;53.70
17994;DHT22;9122;48.406;9.984;2023-06-04T01:17:42;18.10;53.70
17994;DHT22;9122;48.406;9.984;2023-06-04T01:20:43;18.00;53.50
17994;DHT22;9122;48.406;9.984;2023-06-04T01:26:20;18.00;53.60
17994;DHT22;9122;48.406;9.984;2023-06-04T01:29:05;18.00;53.70
17994;DHT22;9122;48.406;9.984;2023-06-04T01:31:52;17.90;53.60
17994;DHT22;9122;48.406;9.984;2023-06-04T01:34:45;17.90;53.70
17994;DHT22;9122;48.406;9.984;2023-06-04T01:37:29;17.80;53.60
17994;DHT22;9122;48.406;9.984;2023-06-04T01:40:14;17.70;53.60
17994;DHT22;9122;48.406;9.984;2023-06-04T01:42:59;17.70;53.70
17994;DHT22;9122;48.406;9.984;2023-06-04T01:45:43;17.70;53.80
17994;DHT22;9122;48.406;9.984;2023-06-04T01:48:29;17.70;53.80
17994;DHT22;9122;48.406;9.984;2023-06-04T01:51:13;17.60;53.90
17994;DHT22;9122;48.406;9.984;2023-06-04T01:53:57;17.60;54.00
17994;DHT22;9122;48.406;9.984;2023-06-04T01:56:42;17.60;54.10
17994;DHT22;9122;48.406;9.984;2023-06-04T01:59:26;17.50;54.10
17994;DHT22;9122;48.406;9.984;2023-06-04T02:02:11;17.50;54.30
17994;DHT22;9122;48.406;9.984;2023-06-04T02:04:55;17.50;54.40
17994;DHT22;9122;48.406;9.984;2023-06-04T02:07:42;17.40;54.30
17994;DHT22;9122;48.406;9.984;2023-06-04T02:10:28;17.40;54.30
17994;DHT22;9122;48.406;9.984;2023-06-04T02:13:14;17.40;54.40
17994;DHT22;9122;48.406;9.984;2023-06-04T02:15:59;17.30;54.40
17994;DHT22;9122;48.406;9.984;2023-06-04T02:18:43;17.30;54.30
17994;DHT22;9122;48.406;9.984;2023-06-04T02:21:27;17.20;54.20
17994;DHT22;9122;48.406;9.984;2023-06-04T02:24:12;17.20;54.10
17994;DHT22;9122;48.406;9.984;2023-06-04T02:26:57;17.20;54.20
17994;DHT22;9122;48.406;9.984;2023-06-04T02:29:41;17.20;54.10
17994;DHT22;9122;48.406;9.984;2023-06-04T02:32:26;17.20;54.20
17994;DHT22;9122;48.406;9.984;2023-06-04T02:35:10;17.10;54.30
17994;DHT22;9122;48.406;9.984;2023-06-04T02:37:55;17.10;54.30
17994;DHT22;9122;48.406;9.984;2023-06-04T02:40:43;17.00;54.40
17994;DHT22;9122;48.406;9.984;2023-06-04T02:43:27;17.00;54.50
17994;DHT22;9122;48.406;9.984;2023-06-04T02:46:12;17.00;54.60
17994;DHT22;9122;48.406;9.984;2023-06-04T02:48:56;17.00;54.60
17994;DHT22;9122;48.406;9.984;2023-06-04T02:51:41;16.90;54.60
17994;DHT22;9122;48.406;9.984;2023-06-04T02:54:26;16.90;54.80
17994;DHT22;9122;48.406;9.984;2023-06-04T02:57:10;16.90;54.80
17994;DHT22;9122;48.406;9.984;2023-06-04T02:59:54;16.80;54.80
17994;DHT22;9122;48.406;9.984;2023-06-04T03:02:45;16.80;54.80
17994;DHT22;9122;48.406;9.984;2023-06-04T03:05:30;16.80;54.80
17994;DHT22;9122;48.406;9.984;2023-06-04T03:08:17;16.70;54.90
17994;DHT22;9122;48.406;9.984;2023-06-04T03:11:01;16.70;55.00
17994;DHT22;9122;48.406;9.984;2023-06-04T03:13:45;16.70;55.00
17994;DHT22;9122;48.406;9.984;2023-06-04T03:16:30;16.60;55.10
17994;DHT22;9122;48.406;9.984;2023-06-04T03:19:14;16.60;55.10
17994;DHT22;9122;48.406;9.984;2023-06-04T03:22:01;16.60;55.20
17994;DHT22;9122;48.406;9.984;2023-06-04T03:24:49;16.60;55.40
17994;DHT22;9122;48.406;9.984;2023-06-04T03:27:34;16.60;55.50
17994;DHT22;9122;48.406;9.984;2023-06-04T03:30:19;16.60;55.50
17994;DHT22;9122;48.406;9.984;2023-06-04T03:33:03;16.50;55.40
17994;DHT22;9122;48.406;9.984;2023-06-04T03:35:48;16.50;55.50
17994;DHT22;9122;48.406;9.984;2023-06-04T03:38:33;16.50;55.50
17994;DHT22;9122;48.406;9.984;2023-06-04T03:41:17;16.50;55.50
17994;DHT22;9122;48.406;9.984;2023-06-04T03:44:02;16.40;55.60
17994;DHT22;9122;48.406;9.984;2023-06-04T03:46:46;16.40;55.60
17994;DHT22;9122;48.406;9.984;2023-06-04T03:49:31;16.40;56.10
17994;DHT22;9122;48.406;9.984;2023-06-04T03:52:15;16.30;56.60
17994;DHT22;9122;48.406;9.984;2023-06-04T03:55:00;16.30;56.80
17994;DHT22;9122;48.406;9.984;2023-06-04T03:57:44;16.30;56.60
17994;DHT22;9122;48.406;9.984;2023-06-04T04:00:29;16.30;56.90
17994;DHT22;9122;48.406;9.984;2023-06-04T04:03:16;16.20;57.20
17994;DHT22;9122;48.406;9.984;2023-06-04T04:06:02;16.20;57.50
17994;DHT22;9122;48.406;9.984;2023-06-04T04:08:46;16.20;57.40
17994;DHT22;9122;48.406;9.984;2023-06-04T04:11:33;16.20;57.30
17994;DHT22;9122;48.406;9.984;2023-06-04T04:14:17;16.20;57.50
17994;DHT22;9122;48.406;9.984;2023-06-04T04:17:01;16.20;57.40
17994;DHT22;9122;48.406;9.984;2023-06-04T04:19:46;16.20;57.30
17994;DHT22;9122;48.406;9.984;2023-06-04T04:22:30;16.20;57.40
17994;DHT22;9122;48.406;9.984;2023-06-04T04:25:15;16.20;57.60
17994;DHT22;9122;48.406;9.984;2023-06-04T04:28:00;16.10;57.90
17994;DHT22;9122;48.406;9.984;2023-06-04T04:30:45;16.10;58.30
17994;DHT22;9122;48.406;9.984;2023-06-04T04:33:30;16.10;58.20
17994;DHT22;9122;48.406;9.984;2023-06-04T04:36:16;16.10;58.30
17994;DHT22;9122;48.406;9.984;2023-06-04T04:39:02;16.10;58.40
17994;DHT22;9122;48.406;9.984;2023-06-04T04:41:47;16.10;58.20
17994;DHT22;9122;48.406;9.984;2023-06-04T04:44:31;16.10;58.20
17994;DHT22;9122;48.406;9.984;2023-06-04T04:47:15;16.00;58.20
17994;DHT22;9122;48.406;9.984;2023-06-04T04:50:00;16.10;58.40
17994;DHT22;9122;48.406;9.984;2023-06-04T04:52:45;16.00;58.40
17994;DHT22;9122;48.406;9.984;2023-06-04T04:55:29;16.10;58.50
17994;DHT22;9122;48.406;9.984;2023-06-04T04:58:13;16.10;58.60
17994;DHT22;9122;48.406;9.984;2023-06-04T05:00:58;16.10;58.80
17994;DHT22;9122;48.406;9.984;2023-06-04T05:03:42;16.10;58.90
17994;DHT22;9122;48.406;9.984;2023-06-04T05:06:27;16.10;58.90
17994;DHT22;9122;48.406;9.984;2023-06-04T05:09:12;16.10;59.00
17994;DHT22;9122;48.406;9.984;2023-06-04T05:11:56;16.20;59.20
17994;DHT22;9122;48.406;9.984;2023-06-04T05:14:41;16.20;59.20
17994;DHT22;9122;48.406;9.984;2023-06-04T05:17:26;16.20;59.20
17994;DHT22;9122;48.406;9.984;2023-06-04T05:20:14;16.30;59.00
17994;DHT22;9122;48.406;9.984;2023-06-04T05:23:00;16.30;58.80
17994;DHT22;9122;48.406;9.984;2023-06-04T05:25:44;16.30;58.40
17994;DHT22;9122;48.406;9.984;2023-06-04T05:28:29;16.30;58.10
17994;DHT22;9122;48.406;9.984;2023-06-04T05:31:14;16.40;58.00
17994;DHT22;9122;48.406;9.984;2023-06-04T05:34:00;16.40;57.70
17994;DHT22;9122;48.406;9.984;2023-06-04T05:36:45;16.50;57.60
17994;DHT22;9122;48.406;9.984;2023-06-04T05:39:30;16.50;57.60
17994;DHT22;9122;48.406;9.984;2023-06-04T05:42:14;16.60;57.60
17994;DHT22;9122;48.406;9.984;2023-06-04T05:44:59;16.50;57.50
17994;DHT22;9122;48.406;9.984;2023-06-04T05:47:43;16.60;57.30
17994;DHT22;9122;48.406;9.984;2023-06-04T05:50:28;16.60;57.30
17994;DHT22;9122;48.406;9.984;2023-06-04T05:53:13;16.70;57.40
17994;DHT22;9122;48.406;9.984;2023-06-04T05:55:57;16.80;57.40
17994;DHT22;9122;48.406;9.984;2023-06-04T05:58:42;16.80;57.70
17994;DHT22;9122;48.406;9.984;2023-06-04T06:01:26;16.80;56.90
17994;DHT22;9122;48.406;9.984;2023-06-04T06:04:12;16.90;57.00
17994;DHT22;9122;48.406;9.984;2023-06-04T06:06:56;17.00;57.20
17994;DHT22;9122;48.406;9.984;2023-06-04T06:09:41;17.00;57.00
17994;DHT22;9122;48.406;9.984;2023-06-04T06:12:25;17.10;57.00
17994;DHT22;9122;48.406;9.984;2023-06-04T06:15:10;17.10;57.10
17994;DHT22;9122;48.406;9.984;2023-06-04T06:17:55;17.20;56.80
17994;DHT22;9122;48.406;9.984;2023-06-04T06:20:39;17.20;56.90
17994;DHT22;9122;48.406;9.984;2023-06-04T06:23:25;17.20;57.20
17994;DHT22;9122;48.406;9.984;2023-06-04T06:26:10;17.30;57.10
17994;DHT22;9122;48.406;9.984;2023-06-04T06:28:54;17.40;57.10
17994;DHT22;9122;48.406;9.984;2023-06-04T06:31:40;17.40;57.20
17994;DHT22;9122;48.406;9.984;2023-06-04T06:34:24;17.50;57.40
17994;DHT22;9122;48.406;9.984;2023-06-04T06:37:08;17.60;57.20
17994;DHT22;9122;48.406;9.984;2023-06-04T06:39:53;17.70;57.40
17994;DHT22;9122;48.406;9.984;2023-06-04T06:42:37;17.80;57.40
17994;DHT22;9122;48.406;9.984;2023-06-04T06:45:22;17.90;57.30
17994;DHT22;9122;48.406;9.984;2023-06-04T06:48:08;17.90;57.20
17994;DHT22;9122;48.406;9.984;2023-06-04T06:50:53;18.00;56.80
17994;DHT22;9122;48.406;9.984;2023-06-04T06:53:37;18.10;57.10
17994;DHT22;9122;48.406;9.984;2023-06-04T06:56:22;18.20;57.00
17994;DHT22;9122;48.406;9.984;2023-06-04T06:59:06;18.20;56.60
17994;DHT22;9122;48.406;9.984;2023-06-04T07:01:54;18.40;56.70
17994;DHT22;9122;48.406;9.984;2023-06-04T07:04:39;18.40;56.70
17994;DHT22;9122;48.406;9.984;2023-06-04T07:07:23;18.50;56.60
17994;DHT22;9122;48.406;9.984;2023-06-04T07:10:07;18.60;56.80
17994;DHT22;9122;48.406;9.984;2023-06-04T07:12:52;18.70;56.70
17994;DHT22;9122;48.406;9.984;2023-06-04T07:15:36;18.80;56.90
17994;DHT22;9122;48.406;9.984;2023-06-04T07:18:20;18.80;56.80
17994;DHT22;9122;48.406;9.984;2023-06-04T07:21:05;18.90;56.90
17994;DHT22;9122;48.406;9.984;2023-06-04T07:23:50;19.00;56.90
17994;DHT22;9122;48.406;9.984;2023-06-04T07:26:34;19.00;56.90
17994;DHT22;9122;48.406;9.984;2023-06-04T07:29:19;19.10;56.90
17994;DHT22;9122;48.406;9.984;2023-06-04T07:32:04;19.20;56.90
17994;DHT22;9122;48.406;9.984;2023-06-04T07:34:49;19.30;56.60
17994;DHT22;9122;48.406;9.984;2023-06-04T07:37:33;19.40;56.40
17994;DHT22;9122;48.406;9.984;2023-06-04T07:40:17;19.50;56.10
17994;DHT22;9122;48.406;9.984;2023-06-04T07:43:02;19.60;56.10
17994;DHT22;9122;48.406;9.984;2023-06-04T07:45:47;19.70;56.00
17994;DHT22;9122;48.406;9.984;2023-06-04T07:48:31;19.80;55.90
17994;DHT22;9122;48.406;9.984;2023-06-04T07:51:16;19.90;55.80
17994;DHT22;9122;48.406;9.984;2023-06-04T07:54:05;20.00;55.60
17994;DHT22;9122;48.406;9.984;2023-06-04T07:56:50;20.00;55.50
17994;DHT22;9122;48.406;9.984;2023-06-04T07:59:39;20.10;55.40
17994;DHT22;9122;48.406;9.984;2023-06-04T08:02:24;20.20;55.10
17994;DHT22;9122;48.406;9.984;2023-06-04T08:05:08;20.30;55.50
17994;DHT22;9122;48.406;9.984;2023-06-04T08:07:53;20.40;55.50
17994;DHT22;9122;48.406;9.984;2023-06-04T08:10:39;20.50;55.10
17994;DHT22;9122;48.406;9.984;2023-06-04T08:13:24;20.50;55.00
17994;DHT22;9122;48.406;9.984;2023-06-04T08:16:09;20.60;55.00
17994;DHT22;9122;48.406;9.984;2023-06-04T08:18:55;20.70;54.90
17994;DHT22;9122;48.406;9.984;2023-06-04T08:21:40;20.80;55.00
17994;DHT22;9122;48.406;9.984;2023-06-04T08:24:25;20.90;55.60
17994;DHT22;9122;48.406;9.984;2023-06-04T08:27:11;20.90;54.70
17994;DHT22;9122;48.406;9.984;2023-06-04T08:29:56;21.00;54.60
17994;DHT22;9122;48.406;9.984;2023-06-04T08:32:41;21.10;54.50
17994;DHT22;9122;48.406;9.984;2023-06-04T08:35:26;21.20;54.00
17994;DHT22;9122;48.406;9.984;2023-06-04T08:38:10;21.30;53.80
17994;DHT22;9122;48.406;9.984;2023-06-04T08:40:57;21.40;53.60
17994;DHT22;9122;48.406;9.984;2023-06-04T08:43:42;21.50;53.60
17994;DHT22;9122;48.406;9.984;2023-06-04T08:46:31;21.60;53.70
17994;DHT22;9122;48.406;9.984;2023-06-04T08:49:16;21.60;53.70
17994;DHT22;9122;48.406;9.984;2023-06-04T08:52:03;21.70;53.00
17994;DHT22;9122;48.406;9.984;2023-06-04T08:54:49;21.80;53.70
17994;DHT22;9122;48.406;9.984;2023-06-04T08:57:35;21.90;53.00
17994;DHT22;9122;48.406;9.984;2023-06-04T09:00:20;22.00;53.10
17994;DHT22;9122;48.406;9.984;2023-06-04T09:03:04;22.00;53.20
17994;DHT22;9122;48.406;9.984;2023-06-04T09:05:49;22.10;53.20
17994;DHT22;9122;48.406;9.984;2023-06-04T09:08:37;22.20;52.40
17994;DHT22;9122;48.406;9.984;2023-06-04T09:11:22;22.20;52.40
17994;DHT22;9122;48.406;9.984;2023-06-04T09:14:08;22.30;52.50
17994;DHT22;9122;48.406;9.984;2023-06-04T09:16:54;22.40;52.10
17994;DHT22;9122;48.406;9.984;2023-06-04T09:19:38;22.50;52.10
17994;DHT22;9122;48.406;9.984;2023-06-04T09:22:33;22.50;51.70
17994;DHT22;9122;48.406;9.984;2023-06-04T09:25:23;22.60;51.80
17994;DHT22;9122;48.406;9.984;2023-06-04T09:28:09;22.70;51.50
17994;DHT22;9122;48.406;9.984;2023-06-04T09:30:55;22.80;51.70
17994;DHT22;9122;48.406;9.984;2023-06-04T09:33:47;22.80;51.40
17994;DHT22;9122;48.406;9.984;2023-06-04T09:36:36;22.90;51.30
17994;DHT22;9122;48.406;9.984;2023-06-04T09:39:21;22.90;51.20
17994;DHT22;9122;48.406;9.984;2023-06-04T09:42:07;23.00;51.50
17994;DHT22;9122;48.406;9.984;2023-06-04T09:44:52;23.10;51.20
17994;DHT22;9122;48.406;9.984;2023-06-04T09:47:43;23.10;50.80
17994;DHT22;9122;48.406;9.984;2023-06-04T09:50:31;23.20;50.60
17994;DHT22;9122;48.406;9.984;2023-06-04T09:53:22;23.30;50.70
17994;DHT22;9122;48.406;9.984;2023-06-04T09:56:07;23.30;51.70
17994;DHT22;9122;48.406;9.984;2023-06-04T09:58:58;23.40;51.20
17994;DHT22;9122;48.406;9.984;2023-06-04T10:01:45;23.50;51.10
17994;DHT22;9122;48.406;9.984;2023-06-04T10:04:30;23.60;50.20
17994;DHT22;9122;48.406;9.984;2023-06-04T10:07:16;23.70;50.40
17994;DHT22;9122;48.406;9.984;2023-06-04T10:10:02;23.70;49.10
17994;DHT22;9122;48.406;9.984;2023-06-04T10:12:51;23.80;49.00
17994;DHT22;9122;48.406;9.984;2023-06-04T10:15:38;23.90;48.70
17994;DHT22;9122;48.406;9.984;2023-06-04T10:18:23;23.90;48.50
17994;DHT22;9122;48.406;9.984;2023-06-04T10:21:08;24.00;48.40
17994;DHT22;9122;48.406;9.984;2023-06-04T10:23:53;24.00;48.30
17994;DHT22;9122;48.406;9.984;2023-06-04T10:26:38;24.00;48.30
17994;DHT22;9122;48.406;9.984;2023-06-04T10:29:25;24.10;48.20
17994;DHT22;9122;48.406;9.984;2023-06-04T10:32:09;24.10;47.60
17994;DHT22;9122;48.406;9.984;2023-06-04T10:34:54;24.10;47.50
17994;DHT22;9122;48.406;9.984;2023-06-04T10:37:39;24.20;47.70
17994;DHT22;9122;48.406;9.984;2023-06-04T10:40:34;24.20;47.20
17994;DHT22;9122;48.406;9.984;2023-06-04T10:43:20;24.30;47.10
17994;DHT22;9122;48.406;9.984;2023-06-04T10:46:15;24.30;47.20
17994;DHT22;9122;48.406;9.984;2023-06-04T10:48:59;24.40;47.00
17994;DHT22;9122;48.406;9.984;2023-06-04T10:51:43;24.40;47.10
17994;DHT22;9122;48.406;9.984;2023-06-04T10:54:28;24.50;47.10
17994;DHT22;9122;48.406;9.984;2023-06-04T10:57:17;24.50;47.10
17994;DHT22;9122;48.406;9.984;2023-06-04T11:00:01;24.60;47.20
17994;DHT22;9122;48.406;9.984;2023-06-04T11:02:54;24.60;47.20
17994;DHT22;9122;48.406;9.984;2023-06-04T11:08:28;24.80;46.60
17994;DHT22;9122;48.406;9.984;2023-06-04T11:11:14;24.90;46.30
17994;DHT22;9122;48.406;9.984;2023-06-04T11:14:08;24.90;45.90
17994;DHT22;9122;48.406;9.984;2023-06-04T11:16:53;24.90;46.20
17994;DHT22;9122;48.406;9.984;2023-06-04T11:19:38;25.00;46.60
17994;DHT22;9122;48.406;9.984;2023-06-04T11:22:23;25.10;45.80
17994;DHT22;9122;48.406;9.984;2023-06-04T11:25:08;25.10;45.80
17994;DHT22;9122;48.406;9.984;2023-06-04T11:27:54;25.10;45.60
17994;DHT22;9122;48.406;9.984;2023-06-04T11:30:39;25.20;45.50
17994;DHT22;9122;48.406;9.984;2023-06-04T11:33:24;25.20;45.30
17994;DHT22;9122;48.406;9.984;2023-06-04T11:36:08;25.30;45.30
17994;DHT22;9122;48.406;9.984;2023-06-04T11:39:00;25.30;44.50
17994;DHT22;9122;48.406;9.984;2023-06-04T11:41:45;25.30;44.00
17994;DHT22;9122;48.406;9.984;2023-06-04T11:44:30;25.30;43.50
17994;DHT22;9122;48.406;9.984;2023-06-04T11:47:14;25.40;44.00
17994;DHT22;9122;48.406;9.984;2023-06-04T11:49:59;25.40;44.00
17994;DHT22;9122;48.406;9.984;2023-06-04T11:52:43;25.40;43.90
17994;DHT22;9122;48.406;9.984;2023-06-04T11:55:28;25.40;43.40
17994;DHT22;9122;48.406;9.984;2023-06-04T11:58:13;25.50;43.30
17994;DHT22;9122;48.406;9.984;2023-06-04T12:00:58;25.50;43.00
17994;DHT22;9122;48.406;9.984;2023-06-04T12:03:43;25.50;42.90
17994;DHT22;9122;48.406;9.984;2023-06-04T12:06:27;25.50;43.00
17994;DHT22;9122;48.406;9.984;2023-06-04T12:09:20;25.50;42.70
17994;DHT22;9122;48.406;9.984;2023-06-04T12:12:06;25.50;42.60
17994;DHT22;9122;48.406;9.984;2023-06-04T12:15:00;25.50;43.50
17994;DHT22;9122;48.406;9.984;2023-06-04T12:17:51;25.50;43.70
17994;DHT22;9122;48.406;9.984;2023-06-04T12:20:39;25.60;43.20
17994;DHT22;9122;48.406;9.984;2023-06-04T12:23:26;25.60;43.10
17994;DHT22;9122;48.406;9.984;2023-06-04T12:26:22;25.60;43.00
17994;DHT22;9122;48.406;9.984;2023-06-04T12:29:15;25.60;42.80
17994;DHT22;9122;48.406;9.984;2023-06-04T12:32:08;25.50;42.60
17994;DHT22;9122;48.406;9.984;2023-06-04T12:34:52;25.50;42.60
17994;DHT22;9122;48.406;9.984;2023-06-04T12:37:37;25.50;42.40
17994;DHT22;9122;48.406;9.984;2023-06-04T12:40:21;25.50;42.10
17994;DHT22;9122;48.406;9.984;2023-06-04T12:43:06;25.50;41.80
17994;DHT22;9122;48.406;9.984;2023-06-04T12:45:50;25.50;42.00
17994;DHT22;9122;48.406;9.984;2023-06-04T12:48:35;25.50;42.30
17994;DHT22;9122;48.406;9.984;2023-06-04T12:51:20;25.50;42.60
17994;DHT22;9122;48.406;9.984;2023-06-04T12:54:05;25.50;42.60
17994;DHT22;9122;48.406;9.984;2023-06-04T12:56:49;25.50;42.50
17994;DHT22;9122;48.406;9.984;2023-06-04T12:59:34;25.50;42.80
17994;DHT22;9122;48.406;9.984;2023-06-04T13:02:19;25.50;43.10
17994;DHT22;9122;48.406;9.984;2023-06-04T13:05:03;25.50;42.80
17994;DHT22;9122;48.406;9.984;2023-06-04T13:07:48;25.50;42.50
17994;DHT22;9122;48.406;9.984;2023-06-04T13:10:32;25.40;42.10
17994;DHT22;9122;48.406;9.984;2023-06-04T13:13:20;25.40;42.60
17994;DHT22;9122;48.406;9.984;2023-06-04T13:16:04;25.40;42.90
17994;DHT22;9122;48.406;9.984;2023-06-04T13:18:48;25.40;42.60
17994;DHT22;9122;48.406;9.984;2023-06-04T13:21:34;25.40;42.60
17994;DHT22;9122;48.406;9.984;2023-06-04T13:24:21;25.40;42.60
17994;DHT22;9122;48.406;9.984;2023-06-04T13:27:05;25.40;42.20
17994;DHT22;9122;48.406;9.984;2023-06-04T13:29:49;25.30;42.30
17994;DHT22;9122;48.406;9.984;2023-06-04T13:32:34;25.30;42.40
17994;DHT22;9122;48.406;9.984;2023-06-04T13:35:19;25.30;42.70
17994;DHT22;9122;48.406;9.984;2023-06-04T13:38:05;25.30;42.80
17994;DHT22;9122;48.406;9.984;2023-06-04T13:40:52;25.30;42.70
17994;DHT22;9122;48.406;9.984;2023-06-04T13:43:37;25.30;42.50
17994;DHT22;9122;48.406;9.984;2023-06-04T13:46:22;25.20;42.60
17994;DHT22;9122;48.406;9.984;2023-06-04T13:49:07;25.20;42.30
17994;DHT22;9122;48.406;9.984;2023-06-04T13:51:51;25.20;42.40
17994;DHT22;9122;48.406;9.984;2023-06-04T13:54:35;25.20;42.60
17994;DHT22;9122;48.406;9.984;2023-06-04T13:57:20;25.10;42.70
17994;DHT22;9122;48.406;9.984;2023-06-04T14:00:05;25.10;42.60
17994;DHT22;9122;48.406;9.984;2023-06-04T14:02:50;25.10;42.40
17994;DHT22;9122;48.406;9.984;2023-06-04T14:05:36;25.10;42.20
17994;DHT22;9122;48.406;9.984;2023-06-04T14:08:20;25.10;41.90
17994;DHT22;9122;48.406;9.984;2023-06-04T14:11:04;25.00;42.00
17994;DHT22;9122;48.406;9.984;2023-06-04T14:13:50;25.00;42.30
17994;DHT22;9122;48.406;9.984;2023-06-04T14:16:34;24.90;42.80
17994;DHT22;9122;48.406;9.984;2023-06-04T14:19:18;25.00;42.80
17994;DHT22;9122;48.406;9.984;2023-06-04T14:22:03;25.00;42.50
17994;DHT22;9122;48.406;9.984;2023-06-04T14:24:47;25.00;41.90
17994;DHT22;9122;48.406;9.984;2023-06-04T14:27:33;24.90;42.10
17994;DHT22;9122;48.406;9.984;2023-06-04T14:30:17;24.90;42.20
17994;DHT22;9122;48.406;9.984;2023-06-04T14:33:03;24.90;43.10
17994;DHT22;9122;48.406;9.984;2023-06-04T14:35:47;24.90;42.30
17994;DHT22;9122;48.406;9.984;2023-06-04T14:38:32;24.90;42.20
17994;DHT22;9122;48.406;9.984;2023-06-04T14:41:17;24.80;42.20
17994;DHT22;9122;48.406;9.984;2023-06-04T14:44:04;24.70;42.30
17994;DHT22;9122;48.406;9.984;2023-06-04T14:46:50;24.70;42.00
17994;DHT22;9122;48.406;9.984;2023-06-04T14:49:35;24.80;41.90
17994;DHT22;9122;48.406;9.984;2023-06-04T14:52:21;24.70;42.50
17994;DHT22;9122;48.406;9.984;2023-06-04T14:55:05;24.70;42.60
17994;DHT22;9122;48.406;9.984;2023-06-04T14:57:50;24.70;42.10
17994;DHT22;9122;48.406;9.984;2023-06-04T15:00:34;24.70;42.30
17994;DHT22;9122;48.406;9.984;2023-06-04T15:03:19;24.70;41.60
17994;DHT22;9122;48.406;9.984;2023-06-04T15:06:06;24.60;41.80
17994;DHT22;9122;48.406;9.984;2023-06-04T15:08:50;24.60;42.00
17994;DHT22;9122;48.406;9.984;2023-06-04T15:11:34;24.60;42.60
17994;DHT22;9122;48.406;9.984;2023-06-04T15:14:19;24.60;42.30
17994;DHT22;9122;48.406;9.984;2023-06-04T15:17:03;24.60;42.00
17994;DHT22;9122;48.406;9.984;2023-06-04T15:19:47;24.60;41.70
17994;DHT22;9122;48.406;9.984;2023-06-04T15:22:31;24.60;41.40
17994;DHT22;9122;48.406;9.984;2023-06-04T15:25:15;24.60;41.40
17994;DHT22;9122;48.406;9.984;2023-06-04T15:28:00;24.50;41.10
17994;DHT22;9122;48.406;9.984;2023-06-04T15:30:45;24.50;41.20
17994;DHT22;9122;48.406;9.984;2023-06-04T15:33:29;24.50;41.40
17994;DHT22;9122;48.406;9.984;2023-06-04T15:36:13;24.50;41.80
17994;DHT22;9122;48.406;9.984;2023-06-04T15:38:57;24.50;41.80
17994;DHT22;9122;48.406;9.984;2023-06-04T15:41:45;24.40;41.70
17994;DHT22;9122;48.406;9.984;2023-06-04T15:44:29;24.50;41.60
17994;DHT22;9122;48.406;9.984;2023-06-04T15:47:14;24.40;41.20
17994;DHT22;9122;48.406;9.984;2023-06-04T15:49:58;24.40;41.00
17994;DHT22;9122;48.406;9.984;2023-06-04T15:52:42;24.40;40.90
17994;DHT22;9122;48.406;9.984;2023-06-04T15:55:26;24.40;41.20
17994;DHT22;9122;48.406;9.984;2023-06-04T15:58:10;24.40;40.90
17994;DHT22;9122;48.406;9.984;2023-06-04T16:00:55;24.40;41.20
17994;DHT22;9122;48.406;9.984;2023-06-04T16:03:40;24.40;41.50
17994;DHT22;9122;48.406;9.984;2023-06-04T16:06:25;24.40;41.40
17994;DHT22;9122;48.406;9.984;2023-06-04T16:09:10;24.40;41.40
17994;DHT22;9122;48.406;9.984;2023-06-04T16:11:55;24.40;41.30
17994;DHT22;9122;48.406;9.984;2023-06-04T16:14:39;24.40;40.80
17994;DHT22;9122;48.406;9.984;2023-06-04T16:17:24;24.40;40.30
17994;DHT22;9122;48.406;9.984;2023-06-04T16:20:09;24.40;39.80
17994;DHT22;9122;48.406;9.984;2023-06-04T16:22:54;24.30;39.60
17994;DHT22;9122;48.406;9.984;2023-06-04T16:25:38;24.30;39.00
17994;DHT22;9122;48.406;9.984;2023-06-04T16:28:23;24.30;39.30
17994;DHT22;9122;48.406;9.984;2023-06-04T16:31:07;24.30;39.40
17994;DHT22;9122;48.406;9.984;2023-06-04T16:33:52;24.30;39.20
17994;DHT22;9122;48.406;9.984;2023-06-04T16:36:36;24.30;39.10
17994;DHT22;9122;48.406;9.984;2023-06-04T16:39:21;24.30;39.30
17994;DHT22;9122;48.406;9.984;2023-06-04T16:42:06;24.30;39.70
17994;DHT22;9122;48.406;9.984;2023-06-04T16:44:50;24.30;39.70
17994;DHT22;9122;48.406;9.984;2023-06-04T16:47:35;24.30;39.80
17994;DHT22;9122;48.406;9.984;2023-06-04T16:50:20;24.20;39.90
17994;DHT22;9122;48.406;9.984;2023-06-04T16:53:05;24.30;40.10
17994;DHT22;9122;48.406;9.984;2023-06-04T16:55:49;24.20;40.00
17994;DHT22;9122;48.406;9.984;2023-06-04T16:58:34;24.20;40.00
17994;DHT22;9122;48.406;9.984;2023-06-04T17:01:22;24.20;39.90
17994;DHT22;9122;48.406;9.984;2023-06-04T17:04:06;24.20;40.00
17994;DHT22;9122;48.406;9.984;2023-06-04T17:06:51;24.20;40.00
17994;DHT22;9122;48.406;9.984;2023-06-04T17:09:37;24.20;39.90
17994;DHT22;9122;48.406;9.984;2023-06-04T17:12:21;24.20;40.00
17994;DHT22;9122;48.406;9.984;2023-06-04T17:15:06;24.30;39.90
17994;DHT22;9122;48.406;9.984;2023-06-04T17:17:50;24.40;39.40
17994;DHT22;9122;48.406;9.984;2023-06-04T17:20:34;24.40;39.30
17994;DHT22;9122;48.406;9.984;2023-06-04T17:23:23;24.40;39.50
17994;DHT22;9122;48.406;9.984;2023-06-04T17:26:08;24.40;39.90
17994;DHT22;9122;48.406;9.984;2023-06-04T17:28:53;24.30;40.00
17994;DHT22;9122;48.406;9.984;2023-06-04T17:31:37;24.30;40.20
17994;DHT22;9122;48.406;9.984;2023-06-04T17:34:22;24.20;40.50
17994;DHT22;9122;48.406;9.984;2023-06-04T17:37:06;24.20;40.90
17994;DHT22;9122;48.406;9.984;2023-06-04T17:39:51;24.20;41.10
17994;DHT22;9122;48.406;9.984;2023-06-04T17:42:35;24.10;40.90
17994;DHT22;9122;48.406;9.984;2023-06-04T17:45:20;24.10;40.80